Time;durP1;ratioP1;P1;durP2;ratioP2;P2;SDS_P1;SDS_P2;PMS_P1;PMS_P2;Temp;Humidity;BMP_temperature;BMP_pressure;BME280_temperature;BME280_humidity;BME280_pressure;Samples;Min_cycle;Max_cycle;Signal;HPM_P1;HPM_P2
2022/12/30 00:04:56;;;;;;;23.12;17.77;;;11.40;87.00;;;;;;10980253;32;20022;-72
2022/12/30 00:10:58;;;;;;;18.45;14.13;;;11.70;87.30;;;;;;10980156;32;20427;-72
2022/12/30 00:36:03;;;;;;;27.33;22.73;;;11.90;86.40;;;;;;10904755;32;20028;-72
2022/12/30 01:01:07;;;;;;;30.42;23.02;;;12.10;86.40;;;;;;10890117;32;20050;-71
2022/12/30 01:07:09;;;;;;;27.50;21.25;;;11.90;86.50;;;;;;10902540;32;20401;-71
2022/12/30 01:13:11;;;;;;;18.90;16.20;;;12.00;86.60;;;;;;10902534;32;20440;-71
2022/12/30 01:19:14;;;;;;;21.00;16.23;;;12.10;86.50;;;;;;10903525;32;20062;-71
2022/12/30 01:25:16;;;;;;;16.90;15.07;;;12.10;86.30;;;;;;10904369;32;20089;-71
2022/12/30 01:31:18;;;;;;;27.65;21.27;;;12.10;86.60;;;;;;10896830;32;20085;-71
2022/12/30 01:37:21;;;;;;;17.25;14.73;;;12.10;86.70;;;;;;10910244;32;20019;-71
2022/12/30 01:43:48;;;;;;;21.92;17.02;;;12.20;86.70;;;;;;10909915;32;20061;-72
2022/12/30 01:49:53;;;;;;;18.77;13.77;;;12.20;87.20;;;;;;10909705;32;20042;-72
2022/12/30 01:56:00;;;;;;;20.05;14.63;;;12.10;87.10;;;;;;10909482;32;20045;-73
2022/12/30 02:02:03;;;;;;;24.42;18.37;;;12.10;86.90;;;;;;10895990;32;20042;-73
2022/12/30 02:08:16;;;;;;;18.55;14.48;;;12.10;87.10;;;;;;10909158;32;20024;-73
2022/12/30 02:14:19;;;;;;;25.52;17.73;;;12.20;87.10;;;;;;10908950;32;20054;-72
2022/12/30 02:20:42;;;;;;;21.73;15.68;;;12.20;87.10;;;;;;10908421;32;20050;-73
2022/12/30 02:26:56;;;;;;;21.05;16.40;;;12.20;87.30;;;;;;10895106;32;20042;-72
2022/12/30 02:33:16;;;;;;;12.15;10.50;;;11.90;87.10;;;;;;10908176;32;20015;-73
2022/12/30 02:39:37;;;;;;;;;;;11.90;87.10;;;;;;10894419;32;20166;-73
2022/12/30 02:45:41;;;;;;;16.92;13.20;;;11.90;87.00;;;;;;10894027;32;19926;-73
2022/12/30 02:58:38;;;;;;;17.60;13.73;;;12.00;87.10;;;;;;10907389;32;20049;-73
2022/12/30 03:05:04;;;;;;;23.08;17.08;;;12.00;86.90;;;;;;10893248;32;20027;-73
2022/12/30 03:11:17;;;;;;;20.45;14.07;;;11.90;86.80;;;;;;10906820;32;20072;-73
2022/12/30 03:17:24;;;;;;;19.27;14.05;;;11.80;87.00;;;;;;10906664;32;20019;-73
2022/12/30 03:30:00;;;;;;;14.57;9.95;;;11.80;86.90;;;;;;10904904;32;20321;-73
2022/12/30 03:36:15;;;;;;;13.90;11.85;;;11.80;86.80;;;;;;10892187;32;20061;-74
2022/12/30 03:42:18;;;;;;;20.17;14.20;;;11.80;87.10;;;;;;10890260;32;20023;-74
2022/12/30 03:48:20;;;;;;;22.50;15.70;;;11.50;87.10;;;;;;10905071;32;20334;-73
2022/12/30 03:54:22;;;;;;;16.50;12.30;;;11.50;87.20;;;;;;10902187;32;20031;-73
2022/12/30 04:00:24;;;;;;;12.85;9.95;;;11.60;86.90;;;;;;10905118;32;20020;-73
2022/12/30 04:06:26;;;;;;;10.85;8.13;;;11.60;87.00;;;;;;10890243;32;20085;-73
2022/12/30 04:12:28;;;;;;;11.40;9.32;;;11.40;87.10;;;;;;10904772;32;20054;-73
2022/12/30 04:18:30;;;;;;;19.52;16.58;;;11.20;87.50;;;;;;10904637;32;20018;-73
2022/12/30 04:24:32;;;;;;;14.13;10.00;;;11.50;87.60;;;;;;10904572;32;20439;-73
2022/12/30 04:30:35;;;;;;;17.90;12.45;;;11.70;87.30;;;;;;10904430;32;20020;-73
2022/12/30 04:36:38;;;;;;;14.35;9.48;;;11.70;87.30;;;;;;10904269;32;20012;-71
2022/12/30 04:42:40;;;;;;;13.77;10.90;;;11.50;87.30;;;;;;10904194;32;20011;-73
2022/12/30 04:48:42;;;;;;;13.80;9.75;;;11.30;87.50;;;;;;10904162;32;20082;-73
2022/12/30 04:54:43;;;;;;;12.57;9.05;;;11.30;87.40;;;;;;10903931;32;20011;-72
2022/12/30 05:00:47;;;;;;;13.60;10.35;;;11.10;87.50;;;;;;10905185;32;20024;-72
2022/12/30 05:06:51;;;;;;;21.25;14.07;;;11.30;87.60;;;;;;10897365;32;20053;-72
2022/12/30 05:12:53;;;;;;;22.70;15.75;;;11.30;87.30;;;;;;10911028;32;20019;-73
2022/12/30 05:18:55;;;;;;;17.40;14.07;;;11.50;87.10;;;;;;10910828;32;20028;-73
2022/12/30 05:31:24;;;;;;;15.07;12.02;;;11.60;87.40;;;;;;10910538;32;20038;-73
2022/12/30 05:37:26;;;;;;;17.60;14.23;;;11.60;87.20;;;;;;10910169;32;20055;-73
2022/12/30 05:43:28;;;;;;;16.55;11.40;;;11.70;87.20;;;;;;10896713;32;20015;-73
2022/12/30 05:49:30;;;;;;;18.75;14.85;;;11.60;87.10;;;;;;10909958;32;20019;-72
2022/12/30 05:55:32;;;;;;;14.40;10.60;;;11.40;87.30;;;;;;10909393;32;20041;-73
2022/12/30 06:01:34;;;;;;;21.37;14.85;;;11.40;87.20;;;;;;10893599;32;20046;-72
2022/12/30 06:07:36;;;;;;;17.92;12.68;;;11.40;87.30;;;;;;10909336;32;20459;-73
2022/12/30 06:13:38;;;;;;;14.30;11.45;;;11.50;87.20;;;;;;10905144;32;20027;-73
2022/12/30 06:19:40;;;;;;;19.95;16.50;;;11.50;87.20;;;;;;10905112;32;20341;-72
2022/12/30 06:25:42;;;;;;;17.55;14.77;;;11.60;87.30;;;;;;10908645;32;20455;-71
2022/12/30 06:31:46;;;;;;;22.45;16.17;;;11.50;87.30;;;;;;10894998;32;20007;-77
2022/12/30 06:37:48;;;;;;;21.45;15.85;;;11.50;87.40;;;;;;10894576;32;20077;-69
2022/12/30 06:44:01;;;;;;;18.80;11.18;;;11.50;87.30;;;;;;10906681;32;20045;-69
2022/12/30 06:50:25;;;;;;;18.77;13.85;;;11.40;87.20;;;;;;10907854;32;20015;-74
2022/12/30 06:56:27;;;;;;;11.32;9.00;;;11.20;87.50;;;;;;10907258;32;20041;-77
2022/12/30 07:02:29;;;;;;;26.02;17.33;;;11.20;87.50;;;;;;10894790;32;20011;-73
2022/12/30 07:08:32;;;;;;;27.05;21.35;;;11.20;87.90;;;;;;10904889;32;20019;-75
2022/12/30 07:14:33;;;;;;;19.70;14.50;;;11.30;87.80;;;;;;10906694;32;20337;-77
2022/12/30 07:20:36;;;;;;;17.85;13.10;;;11.30;88.20;;;;;;10902771;32;20011;-73
2022/12/30 07:26:38;;;;;;;16.70;11.40;;;11.40;88.10;;;;;;10905968;32;20019;-73
2022/12/30 07:32:40;;;;;;;19.02;14.45;;;11.40;87.90;;;;;;10892787;32;20015;-73
2022/12/30 07:38:42;;;;;;;24.83;14.95;;;11.40;88.00;;;;;;10892315;32;20046;-73
2022/12/30 07:44:44;;;;;;;21.35;14.45;;;11.50;88.10;;;;;;10905355;32;20038;-74
2022/12/30 07:50:46;;;;;;;13.10;10.00;;;11.40;87.90;;;;;;10905418;32;20012;-74
2022/12/30 07:56:48;;;;;;;20.95;12.50;;;11.40;88.10;;;;;;10905137;32;20027;-73
2022/12/30 08:02:50;;;;;;;18.27;13.30;;;11.20;88.00;;;;;;10905142;32;20401;-73
2022/12/30 08:08:52;;;;;;;16.48;11.38;;;11.20;88.20;;;;;;10891085;32;20318;-73
2022/12/30 08:14:54;;;;;;;14.25;10.68;;;11.30;88.20;;;;;;10890807;32;20035;-73
2022/12/30 08:21:16;;;;;;;15.68;11.12;;;11.20;88.00;;;;;;10906696;32;20068;-73
2022/12/30 08:27:19;;;;;;;13.10;9.50;;;11.20;88.10;;;;;;10865374;32;20027;-73
2022/12/30 08:33:21;;;;;;;17.58;11.23;;;11.20;88.00;;;;;;10853300;32;20073;-74
2022/12/30 08:39:23;;;;;;;20.75;15.02;;;11.20;88.00;;;;;;10866259;32;20406;-73
2022/12/30 08:45:25;;;;;;;11.70;7.95;;;11.30;88.10;;;;;;10851925;32;20394;-72
2022/12/30 08:51:28;;;;;;;19.35;10.45;;;11.50;88.00;;;;;;10852221;32;20071;-73
2022/12/30 08:57:30;;;;;;;13.20;8.55;;;11.70;88.00;;;;;;10861947;32;20027;-73
2022/12/30 09:03:31;;;;;;;11.93;8.77;;;11.80;88.10;;;;;;10866378;32;20379;-73
2022/12/30 09:09:33;;;;;;;17.58;12.57;;;11.90;88.00;;;;;;10860901;32;20028;-73
2022/12/30 09:15:35;;;;;;;13.55;9.88;;;11.90;88.00;;;;;;10840159;32;20398;-73
2022/12/30 09:21:43;;;;;;;13.27;9.82;;;11.90;87.90;;;;;;10865867;32;20055;-73
2022/12/30 09:27:45;;;;;;;17.48;14.00;;;11.90;87.80;;;;;;10852236;32;20036;-73
2022/12/30 09:33:47;;;;;;;16.08;12.10;;;12.00;87.90;;;;;;10864280;32;20054;-73
2022/12/30 09:39:49;;;;;;;16.40;12.73;;;12.10;87.80;;;;;;10852343;32;20031;-73
2022/12/30 09:46:17;;;;;;;18.50;12.40;;;12.10;87.80;;;;;;10849702;32;20031;-73
2022/12/30 09:52:30;;;;;;;16.35;12.07;;;12.00;87.90;;;;;;10871890;32;20353;-74
2022/12/30 09:58:34;;;;;;;13.57;10.88;;;12.00;88.00;;;;;;10882209;32;20295;-74
2022/12/30 10:04:36;;;;;;;17.17;11.25;;;12.10;88.00;;;;;;10907619;32;20031;-74
2022/12/30 10:10:44;;;;;;;15.70;10.57;;;11.80;87.70;;;;;;10908802;32;20019;-73
2022/12/30 10:16:55;;;;;;;11.98;8.73;;;11.80;88.10;;;;;;10890857;32;20062;-73
2022/12/30 10:22:56;;;;;;;13.10;9.15;;;11.80;88.20;;;;;;10908414;32;20015;-73
2022/12/30 10:29:08;;;;;;;14.38;10.10;;;11.80;88.10;;;;;;10908188;32;20018;-73
2022/12/30 10:35:22;;;;;;;13.00;9.40;;;11.80;88.30;;;;;;10871590;32;20028;-73
2022/12/30 10:41:42;;;;;;;18.42;14.48;;;11.80;88.20;;;;;;10870404;32;20050;-73
2022/12/30 10:47:58;;;;;;;12.88;9.05;;;11.70;88.40;;;;;;10855476;32;20023;-73
2022/12/30 10:54:01;;;;;;;19.95;14.05;;;11.90;88.50;;;;;;10869781;32;20046;-73
2022/12/30 11:00:05;;;;;;;17.98;11.77;;;12.10;88.40;;;;;;10866851;32;20042;-73
2022/12/30 11:06:18;;;;;;;13.73;10.63;;;12.20;88.60;;;;;;10869539;32;20077;-73
2022/12/30 11:18:49;;;;;;;15.50;11.57;;;12.40;88.90;;;;;;10866050;32;20027;-73
2022/12/30 11:25:16;;;;;;;12.40;9.02;;;12.60;89.00;;;;;;10840957;32;20319;-73
2022/12/30 11:31:19;;;;;;;16.83;11.48;;;12.70;89.60;;;;;;10861771;32;20054;-73
2022/12/30 11:37:23;;;;;;;15.38;10.63;;;12.50;89.00;;;;;;10868488;32;20049;-73
2022/12/30 11:43:25;;;;;;;14.50;9.43;;;12.40;89.20;;;;;;10867434;32;20432;-73
2022/12/30 11:49:47;;;;;;;14.13;9.30;;;12.50;89.40;;;;;;10868254;32;20066;-73
2022/12/30 11:55:51;;;;;;;13.27;8.38;;;12.60;89.40;;;;;;10867842;32;20394;-73
2022/12/30 12:02:00;;;;;;;15.07;10.77;;;12.50;89.30;;;;;;10866884;32;20015;-73
2022/12/30 12:08:19;;;;;;;14.73;11.97;;;12.60;89.50;;;;;;10867700;32;20049;-73
2022/12/30 12:14:48;;;;;;;;;;;12.50;89.10;;;;;;10867121;32;20506;-73
2022/12/30 12:21:06;;;;;;;14.10;9.10;;;12.20;89.00;;;;;;10867248;32;19923;-73
2022/12/30 12:27:16;;;;;;;9.30;7.15;;;12.10;89.40;;;;;;10853930;32;20043;-73
2022/12/30 12:33:30;;;;;;;11.38;8.40;;;12.00;89.30;;;;;;10863141;32;20059;-73
2022/12/30 12:39:58;;;;;;;12.45;8.25;;;11.90;89.50;;;;;;10866785;32;20019;-73
2022/12/30 12:46:22;;;;;;;14.07;8.77;;;11.90;89.60;;;;;;10866651;32;20016;-73
2022/12/30 12:52:27;;;;;;;12.55;10.07;;;12.00;89.40;;;;;;10866720;32;20020;-74
2022/12/30 12:58:43;;;;;;;13.00;9.13;;;12.00;89.50;;;;;;10865206;32;20061;-73
2022/12/30 13:05:07;;;;;;;15.27;12.35;;;12.10;89.40;;;;;;10866390;32;20012;-74
2022/12/30 13:11:17;;;;;;;12.57;8.65;;;12.10;89.30;;;;;;10866208;32;20042;-73
2022/12/30 13:17:36;;;;;;;12.45;9.20;;;12.00;89.40;;;;;;10865180;32;20020;-74
2022/12/30 13:23:51;;;;;;;13.13;8.93;;;12.00;89.10;;;;;;10869895;32;20019;-73
2022/12/30 13:29:56;;;;;;;14.05;10.93;;;11.90;89.10;;;;;;10873161;32;20023;-75
2022/12/30 13:36:18;;;;;;;12.80;9.75;;;11.90;89.30;;;;;;10871013;32;20019;-73
2022/12/30 13:42:32;;;;;;;13.40;10.45;;;11.80;89.20;;;;;;10872687;32;20007;-73
2022/12/30 13:48:34;;;;;;;12.70;10.27;;;12.00;89.40;;;;;;10871053;32;20402;-73
2022/12/30 13:54:36;;;;;;;14.87;8.65;;;11.90;88.90;;;;;;10872180;32;20034;-73
2022/12/30 14:00:41;;;;;;;11.85;8.00;;;11.90;89.20;;;;;;10858814;32;20334;-73
2022/12/30 14:06:50;;;;;;;15.55;9.60;;;12.20;89.50;;;;;;10871874;32;20042;-73
2022/12/30 14:13:14;;;;;;;12.05;10.35;;;12.20;88.80;;;;;;10871683;32;20052;-73
2022/12/30 14:19:36;;;;;;;22.98;14.70;;;12.20;89.00;;;;;;10858129;32;20054;-73
2022/12/30 14:25:39;;;;;;;13.68;11.20;;;12.40;89.70;;;;;;10854757;32;20417;-73
2022/12/30 14:31:50;;;;;;;14.65;10.93;;;12.80;89.50;;;;;;10870421;32;20041;-73
2022/12/30 14:38:13;;;;;;;16.42;12.27;;;12.90;88.80;;;;;;10870127;32;20058;-73
2022/12/30 14:44:15;;;;;;;13.30;10.65;;;12.60;88.70;;;;;;10868956;32;20019;-74
2022/12/30 14:50:20;;;;;;;14.45;10.95;;;12.20;89.00;;;;;;10870378;32;20015;-73
2022/12/30 14:56:24;;;;;;;15.20;11.48;;;12.20;89.30;;;;;;10870025;32;20023;-73
2022/12/30 15:02:31;;;;;;;22.00;14.48;;;12.20;89.70;;;;;;10869927;32;20024;-73
2022/12/30 15:08:36;;;;;;;13.48;10.27;;;12.50;89.40;;;;;;10869626;32;20039;-73
2022/12/30 15:14:47;;;;;;;19.30;13.23;;;12.40;88.90;;;;;;10869380;32;20020;-73
2022/12/30 15:20:49;;;;;;;16.48;13.50;;;12.30;89.30;;;;;;10868060;32;20349;-73
2022/12/30 15:26:53;;;;;;;18.25;13.32;;;12.50;89.20;;;;;;10458343;32;12245764;-73
2022/12/30 15:33:11;;;;;;;11.43;8.68;;;12.80;88.80;;;;;;10826121;32;20062;-73
2022/12/30 15:39:16;;;;;;;15.80;11.82;;;12.70;88.30;;;;;;10828241;32;20428;-73
2022/12/30 15:45:24;;;;;;;22.23;17.30;;;12.20;88.50;;;;;;10823390;32;20019;-73
2022/12/30 15:51:35;;;;;;;13.05;10.32;;;12.10;89.00;;;;;;10816846;32;20032;-73
2022/12/30 15:57:40;;;;;;;17.30;13.00;;;12.20;89.20;;;;;;10832110;32;20124;-73
2022/12/30 16:04:13;;;;;;;25.15;19.73;;;12.40;88.70;;;;;;10830590;32;20407;-73
2022/12/30 16:10:30;;;;;;;14.75;11.68;;;12.60;88.50;;;;;;10830606;32;20024;-73
2022/12/30 16:16:34;;;;;;;24.27;19.35;;;12.50;88.10;;;;;;10830036;32;20028;-74
2022/12/30 16:22:36;;;;;;;17.08;14.82;;;12.40;88.60;;;;;;10842542;27;20339;-74
2022/12/30 16:28:43;;;;;;;18.12;15.48;;;12.60;88.30;;;;;;10866202;32;20051;-74
2022/12/30 16:34:46;;;;;;;36.83;27.98;;;12.30;88.10;;;;;;10862679;32;20023;-73
2022/12/30 16:40:48;;;;;;;25.75;17.83;;;12.20;88.60;;;;;;10853182;32;20088;-74
2022/12/30 16:46:50;;;;;;;23.77;21.20;;;12.50;88.60;;;;;;10866439;32;20020;-74
2022/12/30 16:52:55;;;;;;;27.23;22.48;;;12.70;88.00;;;;;;10866623;32;20039;-74
2022/12/30 16:58:57;;;;;;;22.75;17.30;;;13.00;88.00;;;;;;10871030;32;20024;-73
2022/12/30 17:05:00;;;;;;;34.10;24.30;;;12.70;87.50;;;;;;10874045;32;20012;-73
2022/12/30 17:11:14;;;;;;;25.30;18.65;;;12.20;88.00;;;;;;10873949;32;20020;-73
2022/12/30 17:17:17;;;;;;;22.55;18.05;;;12.00;88.40;;;;;;10860510;32;20046;-73
2022/12/30 17:23:39;;;;;;;29.73;20.90;;;11.80;88.50;;;;;;10869944;32;20081;-73
2022/12/30 17:29:41;;;;;;;32.08;24.87;;;12.10;88.80;;;;;;10873247;32;20020;-73
2022/12/30 17:35:44;;;;;;;38.67;29.67;;;12.30;88.50;;;;;;10873022;32;20100;-73
2022/12/30 17:41:47;;;;;;;25.65;22.30;;;12.50;88.10;;;;;;10870441;32;20046;-73
2022/12/30 17:47:50;;;;;;;26.98;21.48;;;12.60;87.70;;;;;;10868865;32;20420;-73
2022/12/30 17:53:57;;;;;;;28.05;21.52;;;12.40;87.90;;;;;;10859007;32;20304;-73
2022/12/30 17:59:59;;;;;;;32.15;18.73;;;12.10;88.00;;;;;;10858286;32;20071;-73
2022/12/30 18:06:02;;;;;;;20.67;17.17;;;12.20;88.30;;;;;;10871932;32;20015;-73
2022/12/30 18:12:08;;;;;;;24.55;20.98;;;12.10;88.10;;;;;;10854862;32;20039;-74
2022/12/30 18:18:10;;;;;;;26.62;19.83;;;12.20;88.20;;;;;;10871468;32;20394;-74
2022/12/30 18:24:13;;;;;;;27.80;20.27;;;12.70;87.90;;;;;;10871343;32;20346;-74
2022/12/30 18:30:15;;;;;;;20.52;16.95;;;12.80;87.30;;;;;;10871158;32;20045;-74
2022/12/30 18:36:19;;;;;;;24.83;19.10;;;13.00;87.00;;;;;;10870645;32;20027;-74
2022/12/30 18:42:21;;;;;;;23.02;17.77;;;12.90;87.00;;;;;;10870723;32;20016;-74
2022/12/30 18:48:24;;;;;;;29.87;20.25;;;13.00;86.90;;;;;;10870512;32;20532;-73
2022/12/30 18:54:26;;;;;;;30.33;25.83;;;12.90;86.40;;;;;;10870280;32;20322;-74
2022/12/30 19:00:28;;;;;;;19.35;16.10;;;12.90;87.20;;;;;;10870125;32;20023;-74
2022/12/30 19:06:32;;;;;;;24.20;17.73;;;12.90;86.70;;;;;;10866670;32;20011;-74
2022/12/30 19:12:35;;;;;;;35.53;27.05;;;12.40;87.10;;;;;;10869585;32;20019;-74
2022/12/30 19:18:37;;;;;;;27.40;22.85;;;12.10;87.70;;;;;;10855609;32;20390;-74
2022/12/30 19:24:40;;;;;;;22.08;17.85;;;12.20;87.80;;;;;;10869067;32;20058;-74
2022/12/30 19:30:42;;;;;;;22.95;19.80;;;12.60;87.30;;;;;;10869086;32;20007;-73
2022/12/30 19:36:44;;;;;;;17.25;14.38;;;12.70;86.80;;;;;;10841984;32;20062;-74
2022/12/30 19:42:46;;;;;;;16.75;14.65;;;12.60;86.70;;;;;;10842674;32;20054;-74
2022/12/30 19:48:49;;;;;;;20.50;15.18;;;12.20;87.00;;;;;;10868318;32;20077;-74
2022/12/30 19:54:51;;;;;;;14.65;11.23;;;11.90;87.50;;;;;;10854699;32;20011;-74
2022/12/30 20:00:53;;;;;;;15.13;11.90;;;11.70;87.80;;;;;;10867275;32;20019;-73
2022/12/30 20:06:56;;;;;;;17.77;14.00;;;11.60;88.00;;;;;;10867712;32;20095;-74
2022/12/30 20:12:58;;;;;;;19.85;16.20;;;11.60;88.20;;;;;;10867643;32;20042;-73
2022/12/30 20:19:02;;;;;;;16.60;12.57;;;11.60;88.30;;;;;;10867216;32;20027;-73
2022/12/30 20:25:05;;;;;;;22.58;18.12;;;11.70;88.10;;;;;;10867032;32;20330;-73
2022/12/30 20:31:11;;;;;;;16.02;13.30;;;11.80;88.20;;;;;;10866609;32;20015;-73
2022/12/30 20:37:14;;;;;;;20.92;14.52;;;11.90;87.80;;;;;;10866757;32;20041;-73
2022/12/30 20:43:16;;;;;;;18.50;14.70;;;11.70;87.90;;;;;;10867190;32;20421;-73
2022/12/30 20:49:19;;;;;;;20.62;15.40;;;11.90;88.10;;;;;;10862841;32;20038;-74
2022/12/30 20:55:22;;;;;;;15.85;12.68;;;12.10;87.70;;;;;;10864484;32;20028;-74
2022/12/30 21:01:25;;;;;;;16.98;13.95;;;11.90;87.60;;;;;;10866532;32;20061;-74
2022/12/30 21:07:27;;;;;;;21.98;15.82;;;11.70;87.90;;;;;;10866478;32;20039;-74
2022/12/30 21:13:31;;;;;;;14.68;10.95;;;11.70;88.30;;;;;;10866402;32;20043;-74
2022/12/30 21:19:34;;;;;;;19.27;14.45;;;11.80;88.00;;;;;;10863110;32;20042;-74
2022/12/30 21:25:36;;;;;;;20.02;15.88;;;11.60;88.10;;;;;;10852513;32;20061;-74
2022/12/30 21:31:40;;;;;;;17.77;13.05;;;11.70;88.30;;;;;;10852898;32;20038;-74
2022/12/30 21:37:43;;;;;;;16.08;11.77;;;11.80;87.90;;;;;;10865851;32;20054;-74
2022/12/30 22:03:15;;;;;;;24.55;20.65;;;11.30;88.40;;;;;;10872267;32;20024;-73
2022/12/30 22:09:17;;;;;;;18.25;15.13;;;11.50;88.80;;;;;;10858418;32;20016;-73
2022/12/30 22:15:20;;;;;;;19.52;14.40;;;11.80;88.60;;;;;;10871633;32;20051;-74
2022/12/30 22:21:23;;;;;;;18.40;13.48;;;11.80;88.20;;;;;;10871499;32;20091;-73
2022/12/30 22:27:25;;;;;;;16.85;15.05;;;11.60;88.40;;;;;;10870859;32;20024;-73
2022/12/30 22:33:27;;;;;;;16.45;13.25;;;11.40;88.60;;;;;;10871101;32;20043;-73
2022/12/30 22:39:29;;;;;;;18.27;13.27;;;11.50;88.60;;;;;;10870938;32;20059;-73
2022/12/30 22:45:32;;;;;;;18.23;14.27;;;11.60;88.70;;;;;;10870684;32;20019;-73
2022/12/30 22:51:34;;;;;;;18.70;12.13;;;11.50;88.40;;;;;;10870040;32;20050;-73
2022/12/30 22:57:36;;;;;;;13.57;10.63;;;11.50;88.50;;;;;;10869689;32;20024;-74
2022/12/30 23:03:38;;;;;;;13.80;10.77;;;11.20;88.60;;;;;;10870079;32;20020;-73
2022/12/30 23:09:40;;;;;;;20.67;15.27;;;11.20;88.70;;;;;;10869788;32;20073;-74
2022/12/30 23:16:06;;;;;;;18.42;14.98;;;11.30;88.90;;;;;;10869582;32;20388;-74
2022/12/30 23:25:00;;;;;;;14.75;12.15;;;11.70;88.70;;;;;;10869390;32;20024;-73
2022/12/30 23:28:31;;;;;;;17.83;11.95;;;11.70;88.30;;;;;;10853727;32;20069;-73
2022/12/30 23:34:33;;;;;;;14.65;11.25;;;11.30;88.50;;;;;;10855637;32;20345;-73
2022/12/30 23:40:35;;;;;;;15.65;11.15;;;11.10;88.60;;;;;;10868609;32;20024;-73
2022/12/30 23:46:38;;;;;;;16.45;11.18;;;11.00;88.80;;;;;;10842801;32;20036;-73
2022/12/30 23:52:40;;;;;;;17.27;10.25;;;11.10;88.90;;;;;;10868257;32;20081;-73
2022/12/30 23:58:43;;;;;;;12.00;9.27;;;11.10;88.60;;;;;;10854909;32;20440;-73
